createdAt,value
2023-04-20T00:01:55.617Z,4.70
2023-04-20T00:04:24.186Z,4.80
2023-04-20T00:06:53.704Z,4.40
2023-04-20T00:09:22.082Z,4.80
2023-04-20T00:11:50.555Z,4.20
2023-04-20T00:14:19.544Z,5.50
2023-04-20T00:16:48.850Z,4.50
2023-04-20T00:19:18.099Z,3.20
2023-04-20T00:21:46.640Z,5.20
2023-04-20T00:24:15.124Z,5.20
2023-04-20T00:26:43.412Z,5.20
2023-04-20T00:29:12.088Z,4.20
2023-04-20T00:31:40.486Z,4.20
2023-04-20T00:34:08.848Z,4.10
2023-04-20T00:36:37.344Z,5.20
2023-04-20T00:39:06.225Z,4.20
2023-04-20T00:41:34.808Z,4.40
2023-04-20T00:44:03.192Z,4.50
2023-04-20T00:46:32.349Z,4.40
2023-04-20T00:49:01.283Z,4.20
2023-04-20T00:51:29.868Z,2.90
2023-04-20T00:53:59.854Z,4.80
2023-04-20T00:56:28.166Z,4.50
2023-04-20T00:58:57.263Z,3.00
2023-04-20T01:01:25.988Z,4.30
2023-04-20T01:03:54.504Z,4.90
2023-04-20T01:06:23.056Z,4.90
2023-04-20T01:09:12.800Z,4.20
2023-04-20T01:11:41.180Z,4.40
2023-04-20T01:14:09.562Z,5.40
2023-04-20T01:16:37.973Z,4.40
2023-04-20T01:19:06.422Z,4.40
2023-04-20T01:21:35.022Z,4.60
2023-04-20T01:24:03.699Z,4.80
2023-04-20T01:26:34.761Z,4.60
2023-04-20T01:29:03.124Z,5.00
2023-04-20T01:31:32.045Z,4.90
2023-04-20T01:34:00.701Z,4.60
2023-04-20T01:36:29.709Z,4.50
2023-04-20T01:38:58.396Z,4.40
2023-04-20T01:41:28.189Z,4.80
2023-04-20T01:43:58.353Z,4.60
2023-04-20T01:46:26.841Z,4.30
2023-04-20T01:48:55.496Z,4.80
2023-04-20T01:51:23.954Z,4.50
2023-04-20T01:53:52.361Z,4.70
2023-04-20T01:56:20.954Z,4.90
2023-04-20T01:58:50.163Z,4.70
2023-04-20T02:01:18.679Z,4.30
2023-04-20T02:03:49.815Z,4.50
2023-04-20T02:06:18.358Z,4.90
2023-04-20T02:08:46.742Z,4.30
2023-04-20T02:11:15.558Z,4.30
2023-04-20T02:13:43.809Z,4.70
2023-04-20T02:16:13.011Z,4.50
2023-04-20T02:18:41.391Z,5.20
2023-04-20T02:21:09.873Z,3.90
2023-04-20T02:23:38.968Z,4.10
2023-04-20T02:26:07.353Z,4.50
2023-04-20T02:28:37.062Z,4.00
2023-04-20T02:31:06.613Z,4.50
2023-04-20T02:33:35.167Z,4.60
2023-04-20T02:36:04.046Z,5.00
2023-04-20T02:38:34.212Z,4.40
2023-04-20T02:41:02.658Z,4.60
2023-04-20T02:43:31.444Z,4.20
2023-04-20T02:46:00.481Z,3.80
2023-04-20T02:48:29.030Z,4.90
2023-04-20T02:50:57.616Z,4.10
2023-04-20T02:53:28.150Z,4.90
2023-04-20T02:56:09.221Z,3.90
2023-04-20T02:58:43.957Z,4.90
2023-04-20T03:01:20.378Z,5.20
2023-04-20T03:03:50.052Z,4.30
2023-04-20T03:06:19.031Z,5.00
2023-04-20T03:08:52.322Z,5.10
2023-04-20T03:11:41.288Z,4.20
2023-04-20T03:14:10.387Z,5.30
2023-04-20T03:16:42.139Z,5.60
2023-04-20T03:19:11.654Z,4.20
2023-04-20T03:21:40.751Z,4.40
2023-04-20T03:24:09.342Z,5.00
2023-04-20T03:26:38.125Z,4.30
2023-04-20T03:29:16.675Z,4.00
2023-04-20T03:31:45.581Z,4.60
2023-04-20T03:34:14.655Z,4.60
2023-04-20T03:36:43.521Z,4.00
2023-04-20T03:39:12.210Z,4.20
2023-04-20T03:41:40.899Z,4.50
2023-04-20T03:44:09.403Z,4.70
2023-04-20T03:46:38.585Z,4.30
2023-04-20T03:49:07.094Z,4.20
2023-04-20T03:51:35.448Z,4.40
2023-04-20T03:54:04.033Z,4.30
2023-04-20T03:56:32.515Z,4.30
2023-04-20T03:59:01.218Z,5.10
2023-04-20T04:01:29.997Z,4.10
2023-04-20T04:03:59.174Z,4.90
2023-04-20T04:06:28.604Z,4.80
2023-04-20T04:08:57.082Z,4.00
2023-04-20T04:11:26.324Z,4.90
2023-04-20T04:13:54.669Z,4.50
2023-04-20T04:16:23.412Z,4.70
2023-04-20T04:18:51.841Z,4.40
2023-04-20T04:21:22.880Z,4.40
2023-04-20T04:23:56.688Z,4.80
2023-04-20T04:27:05.528Z,4.30
2023-04-20T04:29:38.801Z,5.00
2023-04-20T04:32:09.876Z,4.80
2023-04-20T04:34:39.285Z,4.60
2023-04-20T04:37:07.670Z,4.60
2023-04-20T04:39:46.969Z,4.20
2023-04-20T04:42:21.614Z,4.10
2023-04-20T04:44:52.664Z,4.00
2023-04-20T04:47:29.908Z,4.80
2023-04-20T04:50:00.080Z,4.10
2023-04-20T04:52:31.422Z,4.30
2023-04-20T04:54:59.911Z,4.50
2023-04-20T04:57:28.703Z,4.50
2023-04-20T04:59:59.328Z,4.10
2023-04-20T05:02:28.078Z,3.60
2023-04-20T05:04:57.218Z,4.30
2023-04-20T05:07:25.602Z,4.20
2023-04-20T05:09:54.384Z,4.50
2023-04-20T05:12:23.074Z,4.00
2023-04-20T05:14:52.700Z,3.80
2023-04-20T05:17:21.001Z,4.30
2023-04-20T05:19:49.344Z,4.00
2023-04-20T05:22:17.725Z,4.30
2023-04-20T05:24:46.416Z,4.10
2023-04-20T05:27:14.594Z,3.90
2023-04-20T05:29:42.873Z,4.30
2023-04-20T05:32:12.375Z,3.90
2023-04-20T05:34:40.934Z,3.50
2023-04-20T05:37:09.856Z,3.80
2023-04-20T05:39:38.286Z,4.40
2023-04-20T05:42:06.725Z,4.80
2023-04-20T05:44:36.875Z,4.60
2023-04-20T05:52:04.463Z,4.70
2023-04-20T05:54:32.946Z,4.60
2023-04-20T05:57:01.420Z,4.10
2023-04-20T05:59:29.833Z,4.50
2023-04-20T06:01:58.302Z,5.00
2023-04-20T06:04:27.010Z,5.50
2023-04-20T06:06:55.867Z,5.00
2023-04-20T06:09:24.279Z,5.10
2023-04-20T06:11:52.731Z,4.70
2023-04-20T06:14:21.012Z,4.60
2023-04-20T06:16:49.307Z,5.00
2023-04-20T06:19:18.107Z,5.00
2023-04-20T06:21:47.297Z,5.20
2023-04-20T06:24:16.075Z,4.70
2023-04-20T06:26:44.463Z,4.40
2023-04-20T06:29:13.250Z,5.50
2023-04-20T06:31:41.747Z,5.30
2023-04-20T06:34:10.244Z,4.80
2023-04-20T06:36:39.725Z,4.80
2023-04-20T06:39:08.104Z,4.60
2023-04-20T06:41:38.960Z,5.50
2023-04-20T06:44:07.743Z,4.60
2023-04-20T06:46:36.572Z,4.70
2023-04-20T06:49:05.115Z,4.60
2023-04-20T06:51:34.927Z,4.30
2023-04-20T06:56:20.440Z,5.30
2023-04-20T06:59:07.865Z,4.70
2023-04-20T07:01:36.490Z,5.10
2023-04-20T07:04:05.210Z,4.90
2023-04-20T07:06:34.649Z,5.90
2023-04-20T07:09:04.558Z,6.10
2023-04-20T07:11:52.113Z,5.30
2023-04-20T07:14:20.786Z,5.50
2023-04-20T07:16:52.795Z,5.00
2023-04-20T07:19:21.439Z,5.10
2023-04-20T07:21:49.822Z,5.60
2023-04-20T07:24:18.198Z,5.40
2023-04-20T07:26:46.587Z,4.60
2023-04-20T07:29:15.416Z,4.90
2023-04-20T07:31:45.415Z,5.10
2023-04-20T07:34:13.883Z,4.80
2023-04-20T07:36:42.284Z,5.40
2023-04-20T07:39:10.646Z,4.80
2023-04-20T07:41:39.436Z,5.80
2023-04-20T07:44:07.821Z,5.10
2023-04-20T07:49:06.119Z,4.50
2023-04-20T07:51:36.657Z,5.10
2023-04-20T07:54:05.443Z,5.40
2023-04-20T07:56:34.751Z,5.30
2023-04-20T07:59:03.133Z,5.70
2023-04-20T08:01:32.536Z,5.30
2023-04-20T08:04:01.165Z,5.40
2023-04-20T08:06:29.815Z,5.20
2023-04-20T08:08:58.297Z,4.80
2023-04-20T08:13:57.235Z,5.20
2023-04-20T08:16:27.339Z,5.70
2023-04-20T08:18:56.027Z,5.40
2023-04-20T08:21:25.541Z,4.90
2023-04-20T08:23:54.935Z,5.30
2023-04-20T08:26:25.570Z,5.70
2023-04-20T08:28:54.070Z,5.50
2023-04-20T08:31:22.716Z,5.10
2023-04-20T08:33:51.639Z,5.30
2023-04-20T08:36:20.135Z,5.00
2023-04-20T08:38:58.754Z,4.70
2023-04-20T08:41:27.224Z,5.30
2023-04-20T08:43:55.917Z,4.80
2023-04-20T08:46:24.989Z,4.50
2023-04-20T08:48:55.958Z,5.60
2023-04-20T08:51:24.760Z,5.30
2023-04-20T08:53:53.348Z,5.10
2023-04-20T08:56:39.670Z,5.60
2023-04-20T08:59:10.687Z,4.70
2023-04-20T09:01:42.196Z,5.80
2023-04-20T09:04:22.036Z,5.10
2023-04-20T09:06:52.492Z,4.70
2023-04-20T09:12:07.449Z,6.10
2023-04-20T09:14:45.124Z,4.50
2023-04-20T09:17:14.833Z,4.60
2023-04-20T09:22:15.272Z,4.30
2023-04-20T09:24:43.653Z,5.00
2023-04-20T09:27:18.790Z,4.80
2023-04-20T09:30:01.308Z,5.00
2023-04-20T09:32:30.244Z,5.10
2023-04-20T09:34:58.682Z,5.00
2023-04-20T09:37:28.329Z,5.10
2023-04-20T09:40:00.073Z,5.30
2023-04-20T09:42:29.266Z,5.00
2023-04-20T09:44:57.738Z,5.10
2023-04-20T09:47:27.699Z,5.00
2023-04-20T09:52:25.852Z,4.80
2023-04-20T09:54:54.943Z,4.30
2023-04-20T09:57:23.234Z,4.40
2023-04-20T09:59:53.214Z,5.10
2023-04-20T10:02:22.203Z,5.00
2023-04-20T10:04:52.777Z,5.20
2023-04-20T10:07:28.792Z,4.40
2023-04-20T10:10:11.163Z,5.70
2023-04-20T10:12:48.548Z,4.90
2023-04-20T10:15:17.234Z,5.20
2023-04-20T10:17:46.635Z,4.30
2023-04-20T10:20:22.798Z,5.40
2023-04-20T10:22:52.198Z,5.30
2023-04-20T10:25:23.525Z,4.90
2023-04-20T10:27:59.920Z,4.70
2023-04-20T10:30:29.271Z,5.20
2023-04-20T10:33:07.464Z,5.90
2023-04-20T10:35:55.332Z,4.60
2023-04-20T10:38:37.072Z,4.30
2023-04-20T10:41:12.878Z,4.40
2023-04-20T10:43:43.893Z,4.00
2023-04-20T10:46:20.400Z,4.30
2023-04-20T10:49:17.677Z,3.80
2023-04-20T10:51:50.012Z,4.60
2023-04-20T10:54:18.876Z,4.70
2023-04-20T10:56:48.588Z,5.70
2023-04-20T10:59:18.678Z,5.20
2023-04-20T11:01:47.829Z,4.00
2023-04-20T11:04:18.640Z,5.30
2023-04-20T11:06:49.084Z,4.20
2023-04-20T11:09:20.220Z,4.40
2023-04-20T11:12:18.808Z,4.00
2023-04-20T11:15:06.387Z,4.80
2023-04-20T11:17:35.709Z,3.80
2023-04-20T11:20:11.191Z,3.90
2023-04-20T11:22:40.188Z,4.70
2023-04-20T11:25:10.888Z,5.00
2023-04-20T11:27:41.121Z,4.60
2023-04-20T11:30:10.195Z,4.20
2023-04-20T11:32:39.642Z,3.80
2023-04-20T11:35:11.163Z,4.50
2023-04-20T11:37:51.575Z,4.40
2023-04-20T11:40:20.569Z,4.10
2023-04-20T11:42:48.943Z,5.60
2023-04-20T11:45:18.256Z,4.30
2023-04-20T11:47:47.556Z,4.50
2023-04-20T11:50:16.131Z,3.60
2023-04-20T11:52:44.728Z,4.50
2023-04-20T11:55:13.103Z,4.30
2023-04-20T11:57:41.798Z,4.80
2023-04-20T12:00:10.998Z,4.20
2023-04-20T12:02:45.523Z,4.40
2023-04-20T12:05:14.397Z,4.50
2023-04-20T12:07:44.037Z,3.60
2023-04-20T12:10:12.506Z,4.20
2023-04-20T12:12:42.365Z,4.40
2023-04-20T12:15:11.274Z,4.00
2023-04-20T12:17:40.496Z,3.90
2023-04-20T12:20:12.513Z,4.30
2023-04-20T12:22:41.271Z,4.20
2023-04-20T12:25:10.164Z,4.40
2023-04-20T12:27:38.992Z,4.90
2023-04-20T12:30:09.457Z,4.30
2023-04-20T12:32:39.905Z,4.10
2023-04-20T12:35:09.733Z,3.70
2023-04-20T12:37:38.430Z,4.20
2023-04-20T12:40:07.700Z,4.10
2023-04-20T12:42:36.376Z,4.00
2023-04-20T12:45:06.550Z,3.90
2023-04-20T12:47:34.937Z,4.20
2023-04-20T12:50:04.132Z,4.20
2023-04-20T12:52:32.802Z,4.30
2023-04-20T12:55:01.914Z,3.70
2023-04-20T12:57:31.740Z,4.70
2023-04-20T13:00:02.993Z,5.00
2023-04-20T13:02:33.655Z,4.80
2023-04-20T13:05:02.301Z,4.60
2023-04-20T13:07:31.593Z,4.70
2023-04-20T13:10:02.942Z,5.10
2023-04-20T13:12:31.628Z,4.60
2023-04-20T13:15:00.148Z,4.90
2023-04-20T13:17:29.143Z,3.90
2023-04-20T13:19:57.592Z,4.80
2023-04-20T13:22:25.970Z,4.20
2023-04-20T13:24:54.389Z,4.70
2023-04-20T13:27:22.837Z,4.50
2023-04-20T13:29:51.326Z,4.50
2023-04-20T13:32:20.033Z,4.60
2023-04-20T13:34:48.397Z,4.40
2023-04-20T13:37:16.888Z,4.20
2023-04-20T13:39:45.271Z,4.40
2023-04-20T13:42:13.745Z,4.00
2023-04-20T13:44:42.129Z,3.50
2023-04-20T13:47:10.434Z,4.10
2023-04-20T13:49:38.992Z,3.40
2023-04-20T13:52:07.394Z,4.00
2023-04-20T13:54:36.781Z,3.70
2023-04-20T13:57:05.166Z,3.90
2023-04-20T13:59:33.646Z,3.70
2023-04-20T14:02:02.236Z,3.80
2023-04-20T14:04:30.852Z,3.50
2023-04-20T14:06:59.401Z,3.50
2023-04-20T14:09:28.911Z,3.80
2023-04-20T14:11:57.697Z,3.40
2023-04-20T14:14:26.183Z,3.50
2023-04-20T14:16:54.738Z,4.40
2023-04-20T14:19:23.149Z,3.30
2023-04-20T14:21:51.958Z,4.00
2023-04-20T14:24:20.710Z,4.00
2023-04-20T14:26:51.400Z,3.80
2023-04-20T14:29:19.848Z,3.30
2023-04-20T14:31:48.396Z,3.40
2023-04-20T14:34:17.475Z,3.70
2023-04-20T14:36:46.222Z,3.00
2023-04-20T14:39:14.913Z,4.10
2023-04-20T14:41:43.396Z,4.00
2023-04-20T14:44:11.768Z,4.20
2023-04-20T14:46:42.620Z,4.00
2023-04-20T14:49:11.401Z,4.30
2023-04-20T14:51:39.881Z,4.20
2023-04-20T14:54:08.367Z,4.10
2023-04-20T14:56:36.949Z,3.80
2023-04-20T14:59:05.325Z,4.50
2023-04-20T15:01:34.170Z,4.40
2023-04-20T15:04:03.248Z,5.10
2023-04-20T15:06:34.677Z,4.30
2023-04-20T15:09:03.353Z,3.80
2023-04-20T15:11:32.351Z,3.80
2023-04-20T15:14:00.727Z,3.70
2023-04-20T15:16:29.785Z,3.70
2023-04-20T15:18:58.209Z,4.00
2023-04-20T15:21:27.202Z,4.40
2023-04-20T15:23:55.583Z,3.80
2023-04-20T15:26:24.071Z,3.70
2023-04-20T15:28:52.447Z,4.90
2023-04-20T15:31:20.973Z,4.30
2023-04-20T15:33:49.930Z,4.00
2023-04-20T15:36:19.005Z,3.60
2023-04-20T15:38:47.313Z,4.50
2023-04-20T15:41:16.505Z,4.40
2023-04-20T15:43:44.995Z,3.80
2023-04-20T15:46:13.387Z,4.30
2023-04-20T15:48:41.973Z,4.20
2023-04-20T15:51:10.450Z,4.80
2023-04-20T15:53:39.134Z,4.40
2023-04-20T15:56:08.134Z,4.00
2023-04-20T15:58:37.233Z,5.10
2023-04-20T16:01:05.870Z,5.70
2023-04-20T16:03:34.504Z,4.30
2023-04-20T16:06:03.607Z,5.20
2023-04-20T16:08:32.495Z,4.60
2023-04-20T16:11:03.437Z,5.60
2023-04-20T16:13:32.436Z,5.90
2023-04-20T16:16:01.273Z,5.60
2023-04-20T16:18:30.136Z,5.60
2023-04-20T16:20:59.224Z,6.20
2023-04-20T16:23:28.319Z,6.60
2023-04-20T16:25:56.903Z,6.30
2023-04-20T16:28:26.515Z,5.70
2023-04-20T16:30:54.962Z,5.30
2023-04-20T16:33:24.305Z,5.20
2023-04-20T16:35:52.789Z,5.80
2023-04-20T16:38:21.587Z,5.70
2023-04-20T16:40:49.969Z,5.60
2023-04-20T16:43:18.662Z,6.90
2023-04-20T16:45:48.694Z,6.40
2023-04-20T16:50:45.848Z,7.20
2023-04-20T16:53:14.232Z,8.80
2023-04-20T16:55:42.920Z,14.40
2023-04-20T16:58:11.621Z,13.40
2023-04-20T17:00:40.539Z,11.60
2023-04-20T17:03:10.940Z,8.80
2023-04-20T17:05:41.593Z,8.90
2023-04-20T17:08:10.768Z,8.40
2023-04-20T17:10:39.665Z,8.60
2023-04-20T17:13:08.658Z,7.10
2023-04-20T17:15:37.146Z,5.70
2023-04-20T17:18:07.114Z,7.00
2023-04-20T17:20:35.855Z,5.90
2023-04-20T17:23:04.265Z,6.40
2023-04-20T17:25:33.536Z,6.80
2023-04-20T17:28:02.958Z,5.50
2023-04-20T17:30:31.735Z,5.90
2023-04-20T17:33:01.036Z,6.00
2023-04-20T17:35:30.053Z,5.90
2023-04-20T17:37:59.850Z,5.40
2023-04-20T17:40:28.345Z,6.10
2023-04-20T17:42:56.816Z,6.20
2023-04-20T17:45:25.613Z,6.30
2023-04-20T17:47:54.036Z,6.60
2023-04-20T17:50:23.088Z,6.50
2023-04-20T17:52:52.005Z,7.40
2023-04-20T17:55:20.678Z,8.80
2023-04-20T17:57:49.162Z,8.50
2023-04-20T18:00:18.974Z,8.70
2023-04-20T18:05:17.272Z,8.50
2023-04-20T18:07:45.658Z,8.80
2023-04-20T18:10:15.883Z,8.40
2023-04-20T18:12:45.284Z,9.20
2023-04-20T18:15:13.875Z,8.50
2023-04-20T18:17:43.112Z,8.50
2023-04-20T18:20:11.667Z,10.30
2023-04-20T18:22:40.356Z,11.90
2023-04-20T18:25:09.417Z,11.00
2023-04-20T18:27:39.887Z,11.50
2023-04-20T18:30:09.423Z,12.50
2023-04-20T18:32:38.808Z,9.90
2023-04-20T18:35:07.902Z,8.60
2023-04-20T18:37:37.513Z,6.90
2023-04-20T18:40:07.392Z,8.80
2023-04-20T18:45:06.446Z,9.20
2023-04-20T18:47:35.540Z,8.30
2023-04-20T18:50:04.876Z,8.00
2023-04-20T18:52:33.844Z,7.60
2023-04-20T18:55:02.223Z,6.80
2023-04-20T18:57:31.008Z,6.80
2023-04-20T18:59:59.392Z,6.80
2023-04-20T19:02:28.111Z,6.70
2023-04-20T19:04:56.768Z,6.30
2023-04-20T19:07:25.156Z,6.70
2023-04-20T19:12:49.668Z,7.10
2023-04-20T19:15:25.650Z,6.40
2023-04-20T19:17:55.526Z,6.00
2023-04-20T19:20:24.606Z,6.30
2023-04-20T19:22:53.125Z,4.70
2023-04-20T19:25:21.816Z,6.30
2023-04-20T19:27:51.628Z,6.10
2023-04-20T19:30:20.215Z,6.00
2023-04-20T19:32:48.601Z,5.80
2023-04-20T19:35:17.184Z,6.20
2023-04-20T19:37:45.566Z,5.60
2023-04-20T19:40:13.950Z,5.30
2023-04-20T19:42:42.638Z,5.20
2023-04-20T19:45:11.838Z,5.00
2023-04-20T19:47:40.373Z,5.40
2023-04-20T19:50:08.911Z,5.50
2023-04-20T19:52:38.111Z,6.40
2023-04-20T19:55:07.284Z,5.70
2023-04-20T19:57:36.029Z,7.10
2023-04-20T20:00:05.931Z,8.50
2023-04-20T20:02:41.785Z,10.00
2023-04-20T20:05:10.775Z,10.20
2023-04-20T20:07:40.796Z,11.30
2023-04-20T20:10:09.279Z,11.20
2023-04-20T20:12:38.477Z,9.50
2023-04-20T20:15:07.589Z,11.00
2023-04-20T20:17:36.286Z,9.80
2023-04-20T20:20:06.311Z,9.70
2023-04-20T20:25:04.383Z,9.20
2023-04-20T20:30:02.167Z,10.10
2023-04-20T20:32:31.707Z,10.50
2023-04-20T20:35:00.979Z,10.10
2023-04-20T20:37:35.003Z,9.90
2023-04-20T20:40:08.911Z,10.80
2023-04-20T20:42:42.595Z,9.40
2023-04-20T20:45:12.889Z,8.40
2023-04-20T20:47:42.977Z,8.60
2023-04-20T20:50:12.170Z,9.10
2023-04-20T20:52:41.468Z,8.60
2023-04-20T20:55:10.574Z,8.90
2023-04-20T20:57:39.151Z,9.50
2023-04-20T21:00:10.158Z,9.20
2023-04-20T21:02:39.239Z,8.90
2023-04-20T21:05:08.191Z,8.30
2023-04-20T21:07:37.496Z,8.30
2023-04-20T21:10:06.693Z,9.10
2023-04-20T21:12:35.283Z,7.90
2023-04-20T21:15:03.970Z,9.10
2023-04-20T21:17:32.503Z,9.20
2023-04-20T21:20:01.157Z,8.40
2023-04-20T21:22:30.464Z,8.20
2023-04-20T21:24:58.935Z,8.40
2023-04-20T21:27:28.239Z,7.70
2023-04-20T21:32:54.442Z,8.50
2023-04-20T21:35:22.881Z,7.80
2023-04-20T21:37:51.567Z,7.10
2023-04-20T21:40:20.368Z,7.20
2023-04-20T21:42:48.738Z,7.40
2023-04-20T21:45:17.232Z,6.20
2023-04-20T21:47:45.746Z,7.40
2023-04-20T21:50:14.301Z,7.20
2023-04-20T21:52:43.303Z,6.60
2023-04-20T21:55:11.878Z,7.60
2023-04-20T21:57:40.261Z,7.00
2023-04-20T22:00:09.771Z,6.00
2023-04-20T22:02:45.729Z,6.00
2023-04-20T22:05:14.312Z,6.20
2023-04-20T22:07:43.411Z,6.10
2023-04-20T22:10:12.107Z,5.90
2023-04-20T22:12:42.631Z,6.60
2023-04-20T22:15:12.647Z,5.80
2023-04-20T22:17:45.750Z,5.60
2023-04-20T22:20:15.012Z,5.50
2023-04-20T22:22:43.428Z,5.10
2023-04-20T22:25:11.986Z,6.00
2023-04-20T22:27:40.500Z,6.00
2023-04-20T22:30:09.854Z,5.70
2023-04-20T22:32:38.969Z,5.70
2023-04-20T22:35:08.225Z,5.10
2023-04-20T22:37:37.110Z,5.10
2023-04-20T22:40:06.650Z,5.70
2023-04-20T22:42:38.882Z,5.20
2023-04-20T22:45:10.662Z,5.00
2023-04-20T22:47:39.575Z,5.80
2023-04-20T22:50:09.974Z,5.20
2023-04-20T22:52:40.196Z,6.10
2023-04-20T22:55:09.444Z,4.90
2023-04-20T22:57:39.375Z,5.60
2023-04-20T23:02:40.650Z,5.30
2023-04-20T23:05:09.823Z,5.60
2023-04-20T23:07:39.695Z,5.50
2023-04-20T23:10:09.465Z,5.30
2023-04-20T23:12:38.607Z,6.00
2023-04-20T23:15:08.411Z,5.80
2023-04-20T23:17:37.084Z,5.80
2023-04-20T23:20:10.434Z,6.00
2023-04-20T23:22:38.892Z,5.90
2023-04-20T23:25:09.940Z,6.50
2023-04-20T23:27:38.609Z,7.10
2023-04-20T23:30:08.975Z,6.70
2023-04-20T23:32:38.183Z,6.60
2023-04-20T23:35:07.465Z,7.00
2023-04-20T23:37:35.948Z,6.60
2023-04-20T23:40:07.392Z,6.70
2023-04-20T23:42:37.734Z,7.80
2023-04-20T23:47:34.857Z,8.00
2023-04-20T23:50:03.687Z,8.20
2023-04-20T23:52:32.374Z,7.20
2023-04-20T23:55:00.863Z,8.00
2023-04-20T23:57:29.241Z,7.00
2023-04-20T23:59:57.726Z,6.80
